Latest Weather Observations for Terrey Hills

IDN60901

Issued at 5:25 pm EDT Saturday 29 November 2014 (issued every 10 minutes, with the page automatically refreshed every 10 minutes)

About weather observations | Map of Sydney area stations | Latest observations for Sydney area | Other Formats
Station Details ID: 066059 Name: TERREY HILLS AWS Lat: -33.69 Lon: 151.23 Height: 199.0 m
Data from the previous 72 hours. | See also: Recent months at Terrey Hills
Date/Time
EDT
Tmp

°C
App
Tmp
°C
Dew
Point
°C
Rel
Hum
%
Delta-T

°C
Wind Press
QNH
hPa
Press
MSL
hPa
Rain
since
9 am
mm
Dir
 
Spd
km/h
Gust
km/h
Spd
kts
Gust
kts
29/05:00pm 22.5 21.8 15.4 64 4.3 NNE 13 30 7 16 - - 0.0
29/04:30pm 22.9 22.1 16.2 66 4.1 NNE 15 26 8 14 - - 0.0
29/04:00pm 22.9 22.2 15.5 63 4.5 NE 13 28 7 15 - - 0.0
29/03:30pm 23.9 22.3 15.9 61 4.9 ENE 19 28 10 15 - - 0.0
29/03:00pm 23.9 21.9 15.4 59 5.2 ENE 20 32 11 17 - - 0.0
29/02:30pm 24.4 22.8 15.9 59 5.2 ENE 19 28 10 15 - - 0.0
29/02:00pm 24.4 22.9 15.3 57 5.5 ENE 17 26 9 14 - - 0.0
29/01:30pm 24.6 23.7 15.8 58 5.4 ENE 15 24 8 13 - - 0.0
29/01:00pm 25.2 25.7 16.6 59 5.3 ENE 9 17 5 9 - - 0.0
29/12:30pm 24.7 25.1 16.4 60 5.1 NE 9 17 5 9 - - 0.0
29/12:00pm 24.4 24.8 16.4 61 4.9 NE 9 17 5 9 - - 0.0
29/11:30am 24.5 24.8 16.0 59 5.2 NE 9 17 5 9 - - 0.0
29/11:00am 24.3 24.6 16.0 60 5.1 ENE 9 17 5 9 - - 0.0
29/10:30am 22.8 23.1 14.9 61 4.7 N 7 15 4 8 - - 0.0
29/10:00am 22.3 22.7 15.2 64 4.3 N 7 13 4 7 - - 0.0
29/09:30am 21.7 22.3 15.3 67 3.8 NNE 6 9 3 5 - - 0.0
29/09:00am 19.9 20.4 14.9 73 3.0 N 6 9 3 5 - - 0.0
29/08:30am 18.8 19.0 14.7 77 2.4 N 7 11 4 6 - - 0.0
29/08:00am 18.9 19.8 15.0 78 2.3 NNW 4 9 2 5 - - 0.0
29/07:30am 18.8 19.5 15.5 81 2.0 N 6 7 3 4 - - 0.0
29/07:00am 18.3 18.7 15.4 83 1.7 N 7 13 4 7 - - 0.0
29/06:30am 17.5 17.8 15.1 86 1.4 N 7 13 4 7 - - 0.0
29/06:00am 17.2 17.6 15.2 88 1.2 N 7 13 4 7 - - 0.0
29/05:30am 17.0 17.3 15.0 88 1.2 N 7 13 4 7 - - 0.0
29/05:00am 17.1 17.4 14.9 87 1.3 N 7 11 4 6 - - 0.0
29/04:30am 17.0 17.9 15.2 89 1.1 N 4 7 2 4 - - 0.0
29/04:00am 16.4 17.1 14.6 89 1.0 NE 4 4 2 2 - - 0.0
29/03:30am 16.8 17.7 15.0 89 1.1 NNE 4 6 2 3 - - 0.0
29/03:00am 16.8 17.2 14.8 88 1.2 NNE 6 9 3 5 - - 0.0
29/02:30am 16.8 16.9 14.4 86 1.4 N 7 11 4 6 - - 0.0
29/02:00am 16.6 16.9 14.4 87 1.3 NNE 6 7 3 4 - - 0.0
29/01:30am 16.5 16.7 14.2 86 1.3 NE 6 7 3 4 - - 0.0
29/01:00am 16.3 16.4 13.8 85 1.4 NE 6 9 3 5 - - 0.0
29/12:30am 16.5 17.0 14.0 85 1.4 NE 4 7 2 4 - - 0.0
29/12:00am 16.3 16.3 13.6 84 1.5 NE 6 9 3 5 - - 0.0
 
Date/Time
EDT
Tmp

°C
App
Tmp
°C
Dew
Point
°C
Rel
Hum
%
Delta-T

°C
Wind Press
QNH
hPa
Press
MSL
hPa
Rain
since
9 am
mm
Dir
 
Spd
km/h
Gust
km/h
Spd
kts
Gust
kts
28/11:30pm 16.6 16.4 13.7 83 1.7 NE 7 11 4 6 - - 0.0
28/11:00pm 16.7 16.8 13.8 83 1.7 NE 6 13 3 7 - - 0.0
28/10:30pm 16.4 16.3 13.3 82 1.8 NE 6 9 3 5 - - 0.0
28/10:00pm 16.6 16.2 13.1 80 2.0 NE 7 13 4 7 - - 0.0
28/09:30pm 16.4 16.0 12.9 80 2.0 NE 7 13 4 7 - - 0.0
28/09:00pm 16.6 16.1 12.8 78 2.1 NE 7 15 4 8 - - 0.0
28/08:30pm 16.9 15.9 12.4 75 2.5 NE 9 19 5 10 - - 0.0
28/08:00pm 17.0 15.6 12.3 74 2.6 ENE 11 17 6 9 - - 0.0
28/07:30pm 17.6 15.9 12.3 71 3.0 ENE 13 24 7 13 - - 0.0
28/07:00pm 18.4 16.7 12.6 69 3.3 NE 13 24 7 13 - - 0.0
28/06:30pm 19.3 18.2 13.0 67 3.6 ENE 11 19 6 10 - - 0.0
28/06:00pm 19.2 16.4 12.5 65 3.8 ENE 19 26 10 14 - - 0.0
28/05:30pm 19.3 16.2 11.6 61 4.3 ENE 19 30 10 16 - - 0.0
28/05:00pm 20.4 17.9 12.4 60 4.5 ENE 17 32 9 17 - - 0.0
28/04:30pm 20.6 18.9 12.3 59 4.7 ENE 13 24 7 13 - - 0.0
28/04:00pm 20.1 17.9 12.1 60 4.5 ENE 15 24 8 13 - - 0.0
28/03:30pm 20.6 18.3 11.8 57 4.9 ENE 15 26 8 14 - - 0.0
28/03:00pm 20.1 18.2 11.8 59 4.6 E 13 24 7 13 - - 0.0
28/02:30pm 20.9 18.7 12.1 57 5.0 E 15 26 8 14 - - 0.0
28/02:00pm 19.8 17.4 11.3 58 4.7 E 15 26 8 14 - - 0.0
28/01:30pm 20.6 18.1 11.2 55 5.2 E 15 22 8 12 - - 0.0
28/01:00pm 21.1 18.8 11.7 55 5.3 E 15 22 8 12 - - 0.0
28/12:30pm 20.5 19.4 12.0 58 4.8 SE 9 15 5 8 - - 0.0
28/12:00pm 19.9 18.1 10.9 56 5.0 ESE 11 20 6 11 - - 0.0
28/11:30am 19.7 17.8 10.4 55 5.1 E 11 19 6 10 - - 0.0
28/11:00am 21.5 19.8 12.4 56 5.2 E 13 24 7 13 - - 0.0
28/10:30am 20.3 18.5 11.0 55 5.1 E 11 19 6 10 - - 0.0
28/10:00am 20.4 18.8 11.6 57 4.9 E 11 17 6 9 - - 0.0
28/09:30am 19.5 17.7 10.8 57 4.8 ESE 11 17 6 9 - - 0.0
28/09:00am 19.3 17.4 10.6 57 4.7 E 11 19 6 10 - - 2.6
28/08:30am 19.3 18.0 11.3 60 4.4 ESE 9 17 5 9 - - 2.6
28/08:00am 18.5 17.5 11.1 62 4.1 ESE 7 13 4 7 - - 2.6
28/07:30am 17.5 16.6 11.5 68 3.3 SE 7 11 4 6 - - 2.6
28/07:00am 15.1 14.6 10.7 75 2.3 SSW 4 7 2 4 - - 2.6
28/06:30am 14.7 14.2 10.7 77 2.1 S 4 7 2 4 - - 2.6
28/06:00am 14.9 14.4 10.9 77 2.1 SSE 4 7 2 4 - - 2.6
28/05:30am 14.7 14.2 10.9 78 2.0 SSE 4 9 2 5 - - 2.4
28/05:00am 14.8 14.4 11.0 78 2.0 SSE 4 9 2 5 - - 2.4
28/04:30am 14.9 14.1 11.1 78 2.0 SSE 6 11 3 6 - - 2.4
28/04:00am 15.0 14.2 11.2 78 2.0 SSE 6 11 3 6 - - 2.4
28/03:30am 15.2 14.4 11.6 79 2.0 SE 7 11 4 6 - - 2.4
28/03:00am 15.7 15.2 11.9 78 2.1 SE 6 9 3 5 - - 2.4
28/02:30am 16.0 15.7 12.6 80 1.9 SE 6 9 3 5 - - 2.4
28/02:00am 16.3 16.2 13.2 82 1.7 SE 6 9 3 5 - - 2.4
28/01:30am 16.3 16.2 13.4 83 1.6 SE 6 7 3 4 - - 2.4
28/01:00am 16.4 16.4 13.7 84 1.5 SE 6 9 3 5 - - 2.4
28/12:30am 16.3 16.5 14.1 87 1.3 SE 6 9 3 5 - - 2.4
28/12:00am 16.0 16.2 14.2 89 1.0 E 6 9 3 5 - - 2.4
 
Date/Time
EDT
Tmp

°C
App
Tmp
°C
Dew
Point
°C
Rel
Hum
%
Delta-T

°C
Wind Press
QNH
hPa
Press
MSL
hPa
Rain
since
9 am
mm
Dir
 
Spd
km/h
Gust
km/h
Spd
kts
Gust
kts
27/11:30pm 16.4 16.4 14.1 86 1.3 SE 7 11 4 6 - - 2.4
27/11:00pm 16.3 16.5 14.1 87 1.3 SE 6 9 3 5 - - 2.4
27/10:30pm 16.1 16.3 14.3 89 1.0 SE 6 9 3 5 - - 2.4
27/10:00pm 16.0 16.3 14.4 90 0.9 SE 6 9 3 5 - - 2.4
27/09:30pm 16.0 16.0 14.2 89 1.0 SE 7 13 4 7 - - 2.4
27/09:00pm 16.6 16.6 14.2 86 1.4 SE 7 15 4 8 - - 2.0
27/08:30pm 16.3 16.5 14.3 88 1.2 SE 6 7 3 4 - - 2.0
27/08:00pm 16.1 16.8 14.5 90 0.9 SE 4 9 2 5 - - 2.0
27/07:30pm 16.1 16.3 14.6 91 0.9 SE 7 13 4 7 - - 1.8
27/07:00pm 16.3 16.5 14.7 90 0.9 SE 7 19 4 10 - - 1.8
27/06:30pm 16.4 16.1 14.4 88 1.2 SE 9 19 5 10 - - 1.8
27/06:00pm 17.2 16.7 13.7 80 2.0 ESE 9 15 5 8 - - 1.8
27/05:30pm 17.2 16.7 13.9 81 1.9 ESE 9 15 5 8 - - 1.8
27/05:00pm 17.2 16.7 13.7 80 2.0 SE 9 17 5 9 - - 1.8
27/04:30pm 17.4 16.6 13.9 80 2.0 SE 11 20 6 11 - - 1.8
27/04:00pm 17.3 16.5 14.0 81 1.9 SE 11 17 6 9 - - 1.8
27/03:30pm 17.5 17.2 14.4 82 1.8 ESE 9 15 5 8 - - 1.8
27/03:00pm 16.9 16.7 14.7 87 1.3 SE 9 19 5 10 - - 1.8
27/02:30pm 17.4 17.8 15.2 87 1.3 SE 7 13 4 7 - - 1.8
27/02:00pm 16.5 16.7 15.7 95 0.5 SSE 9 19 5 10 - - 1.8
27/01:30pm 16.1 15.6 15.0 93 0.6 SSE 11 22 6 12 - - 1.8
27/01:00pm 16.6 16.7 15.6 94 0.6 SE 9 20 5 11 - - 1.8
27/12:30pm 16.3 16.5 15.8 97 0.3 SE 9 15 5 8 - - 1.8
27/12:00pm 16.3 16.1 15.8 97 0.3 SSE 11 19 6 10 - - 1.8
27/11:30am 16.4 16.3 15.9 97 0.3 SE 11 19 6 10 - - 1.6
27/11:00am 16.6 17.3 16.0 96 0.4 SSE 7 13 4 7 - - 1.0
27/10:30am 16.5 17.2 16.0 97 0.3 SSE 7 13 4 7 - - 1.0
27/10:00am 16.3 16.5 15.8 97 0.3 SE 9 15 5 8 - - 0.8
27/09:30am 16.2 15.9 15.4 95 0.5 SSE 11 24 6 13 - - 0.8
27/09:00am 16.3 16.3 15.3 94 0.6 S 9 15 5 8 - - 3.0
27/08:30am 16.4 16.8 15.4 94 0.6 SSE 7 17 4 9 - - 2.0
27/08:00am 16.6 16.6 15.1 91 0.9 S 9 17 5 9 - - 1.2
27/07:30am 18.0 17.6 15.3 84 1.6 SE 11 22 6 12 - - 0.0
27/07:00am 17.9 16.9 15.5 86 1.4 SE 15 26 8 14 - - 0.0
27/06:30am 17.6 16.8 16.1 91 0.9 SE 15 26 8 14 - - 0.0
27/06:00am 17.4 16.4 15.6 89 1.1 ESE 15 24 8 13 - - 0.0
27/05:30am 17.5 17.2 16.5 94 0.6 ESE 13 26 7 14 - - 0.0
27/05:00am 17.7 18.4 17.1 96 0.4 SE 9 19 5 10 - - 0.0
27/04:30am 17.7 19.4 17.1 96 0.4 S 4 6 2 3 - - 0.0
27/04:00am 17.7 19.4 17.1 96 0.4 SSW 4 7 2 4 - - 0.0
27/03:30am 17.9 20.0 17.1 95 0.5 SSE 2 7 1 4 - - 0.0
27/03:00am 18.1 20.2 17.3 95 0.5 S 2 7 1 4 - - 0.0
27/02:30am 18.1 19.8 17.1 94 0.6 SSE 4 6 2 3 - - 0.0
27/02:00am 18.2 20.4 17.4 95 0.5 SSE 2 4 1 2 - - 0.0
27/01:30am 18.4 20.2 17.4 94 0.6 SSE 4 9 2 5 - - 0.0
27/01:00am 18.6 20.1 17.6 94 0.6 SSE 6 9 3 5 - - 0.0
27/12:30am 18.5 20.3 17.5 94 0.6 SSE 4 7 2 4 - - 0.0
27/12:00am 18.5 19.7 17.3 93 0.7 ESE 7 11 4 6 - - 0.0
 
Date/Time
EDT
Tmp

°C
App
Tmp
°C
Dew
Point
°C
Rel
Hum
%
Delta-T

°C
Wind Press
QNH
hPa
Press
MSL
hPa
Rain
since
9 am
mm
Dir
 
Spd
km/h
Gust
km/h
Spd
kts
Gust
kts
26/11:30pm 18.6 19.4 17.3 92 0.8 E 9 13 5 7 - - 0.0
26/11:00pm 19.0 19.8 17.3 90 1.0 E 9 15 5 8 - - 0.0
26/10:30pm 19.4 20.3 17.5 89 1.2 ESE 9 13 5 7 - - 0.0
26/10:00pm 19.4 20.2 17.4 88 1.2 E 9 17 5 9 - - 0.0
26/09:30pm 19.5 20.4 17.5 88 1.2 E 9 13 5 7 - - 0.0
26/09:00pm 19.3 20.0 17.1 87 1.3 E 9 17 5 9 - - 0.0
26/08:30pm 19.3 19.6 16.9 86 1.5 ENE 11 19 6 10 - - 0.0
26/08:00pm 19.6 19.4 16.8 84 1.7 ENE 13 24 7 13 - - 0.0
26/07:30pm 19.8 19.2 16.6 82 1.9 ENE 15 28 8 15 - - 0.0
26/07:00pm 20.0 19.3 16.4 80 2.2 ENE 15 26 8 14 - - 0.0
26/06:30pm 20.6 20.4 16.8 79 2.3 NE 13 28 7 15 - - 0.0
26/06:00pm 20.6 20.2 16.2 76 2.7 ENE 13 32 7 17 - - 0.0
26/05:30pm 21.7 21.1 16.6 73 3.1 NE 15 28 8 15 - - 0.0

Latest Capital City Observations: Canberra | Sydney | Melbourne | Brisbane | Adelaide | Perth | Hobart | Darwin

Other Formats:

Comma delimited format used in spreadsheet applications
http://www.bom.gov.au/fwo/IDN60901/IDN60901.94759.axf

JavaScript Object Notation format (JSON) in row-major order
http://www.bom.gov.au/fwo/IDN60901/IDN60901.94759.json